sensor_id;sensor_type;location;lat;lon;timestamp;pressure;altitude;pressure_sealevel;temperature;humidity
73398;BME280;63606;52.328;20.964;2022-10-31T00:00:30;101195.06;;;7.61;91.76
73398;BME280;63606;52.328;20.964;2022-10-31T00:02:55;101192.19;;;7.56;92.49
73398;BME280;63606;52.328;20.964;2022-10-31T00:05:21;101196.94;;;7.54;92.27
73398;BME280;63606;52.328;20.964;2022-10-31T00:07:46;101187.63;;;7.50;92.11
73398;BME280;63606;52.328;20.964;2022-10-31T00:10:12;101191.13;;;7.43;92.67
73398;BME280;63606;52.328;20.964;2022-10-31T00:12:37;101188.44;;;7.43;92.74
73398;BME280;63606;52.328;20.964;2022-10-31T00:15:03;101188.84;;;7.40;92.30
73398;BME280;63606;52.328;20.964;2022-10-31T00:17:29;101189.66;;;7.41;93.39
73398;BME280;63606;52.328;20.964;2022-10-31T00:19:54;101192.13;;;7.36;92.82
73398;BME280;63606;52.328;20.964;2022-10-31T00:22:20;101192.69;;;7.31;92.92
73398;BME280;63606;52.328;20.964;2022-10-31T00:24:45;101187.56;;;7.30;93.34
73398;BME280;63606;52.328;20.964;2022-10-31T00:27:10;101195.38;;;7.25;92.88
73398;BME280;63606;52.328;20.964;2022-10-31T00:29:36;101185.88;;;7.22;92.67
73398;BME280;63606;52.328;20.964;2022-10-31T00:32:01;101192.44;;;7.20;92.84
73398;BME280;63606;52.328;20.964;2022-10-31T00:34:27;101189.97;;;7.18;92.95
73398;BME280;63606;52.328;20.964;2022-10-31T00:36:52;101196.56;;;7.15;92.81
73398;BME280;63606;52.328;20.964;2022-10-31T00:39:18;101197.38;;;7.16;92.48
73398;BME280;63606;52.328;20.964;2022-10-31T00:41:43;101195.50;;;7.10;93.10
73398;BME280;63606;52.328;20.964;2022-10-31T00:44:09;101202.69;;;7.09;92.53
73398;BME280;63606;52.328;20.964;2022-10-31T00:46:34;101202.69;;;7.09;92.71
73398;BME280;63606;52.328;20.964;2022-10-31T00:49:00;101200.25;;;7.14;92.32
73398;BME280;63606;52.328;20.964;2022-10-31T00:51:25;101199.84;;;7.17;91.83
73398;BME280;63606;52.328;20.964;2022-10-31T00:53:51;101203.94;;;7.13;92.31
73398;BME280;63606;52.328;20.964;2022-10-31T00:56:16;101205.16;;;7.11;92.07
73398;BME280;63606;52.328;20.964;2022-10-31T00:58:42;101212.16;;;7.12;92.12
73398;BME280;63606;52.328;20.964;2022-10-31T01:01:07;101207.00;;;7.10;92.87
73398;BME280;63606;52.328;20.964;2022-10-31T01:03:33;101212.75;;;7.07;92.66
73398;BME280;63606;52.328;20.964;2022-10-31T01:06:09;101214.56;;;7.00;92.74
73398;BME280;63606;52.328;20.964;2022-10-31T01:08:36;101209.63;;;6.97;92.51
73398;BME280;63606;52.328;20.964;2022-10-31T01:11:14;101211.28;;;6.98;92.52
73398;BME280;63606;52.328;20.964;2022-10-31T01:13:40;101209.16;;;6.94;92.19
73398;BME280;63606;52.328;20.964;2022-10-31T01:16:07;101209.78;;;6.89;92.74
73398;BME280;63606;52.328;20.964;2022-10-31T01:18:35;101217.75;;;6.82;92.26
73398;BME280;63606;52.328;20.964;2022-10-31T01:21:03;101208.66;;;6.77;92.94
73398;BME280;63606;52.328;20.964;2022-10-31T01:23:29;101207.59;;;6.71;92.57
73398;BME280;63606;52.328;20.964;2022-10-31T01:26:12;101207.38;;;6.66;92.36
73398;BME280;63606;52.328;20.964;2022-10-31T01:28:52;101211.44;;;6.62;93.15
73398;BME280;63606;52.328;20.964;2022-10-31T01:31:20;101210.41;;;6.63;93.45
73398;BME280;63606;52.328;20.964;2022-10-31T01:33:46;101215.94;;;6.62;93.63
73398;BME280;63606;52.328;20.964;2022-10-31T01:36:27;101218.22;;;6.65;93.58
73398;BME280;63606;52.328;20.964;2022-10-31T01:38:57;101220.03;;;6.57;92.81
73398;BME280;63606;52.328;20.964;2022-10-31T01:41:25;101220.81;;;6.51;93.65
73398;BME280;63606;52.328;20.964;2022-10-31T01:43:54;101220.81;;;6.51;93.21
73398;BME280;63606;52.328;20.964;2022-10-31T01:46:24;101221.63;;;6.52;93.41
73398;BME280;63606;52.328;20.964;2022-10-31T01:48:53;101215.84;;;6.48;93.01
73398;BME280;63606;52.328;20.964;2022-10-31T01:51:24;101212.94;;;6.43;93.27
73398;BME280;63606;52.328;20.964;2022-10-31T01:53:53;101211.47;;;6.41;92.88
73398;BME280;63606;52.328;20.964;2022-10-31T01:56:21;101218.41;;;6.35;92.72
73398;BME280;63606;52.328;20.964;2022-10-31T01:58:47;101219.06;;;6.37;93.81
73398;BME280;63606;52.328;20.964;2022-10-31T02:01:14;101221.06;;;6.35;93.87
73398;BME280;63606;52.328;20.964;2022-10-31T02:03:41;101216.13;;;6.32;93.44
73398;BME280;63606;52.328;20.964;2022-10-31T02:06:13;101223.13;;;6.33;93.73
73398;BME280;63606;52.328;20.964;2022-10-31T02:08:42;101214.06;;;6.34;93.52
73398;BME280;63606;52.328;20.964;2022-10-31T02:11:09;101217.34;;;6.29;94.01
73398;BME280;63606;52.328;20.964;2022-10-31T02:13:34;101212.13;;;6.21;92.96
73398;BME280;63606;52.328;20.964;2022-10-31T02:16:00;101210.28;;;6.22;93.56
73398;BME280;63606;52.328;20.964;2022-10-31T02:18:28;101217.28;;;6.23;94.08
73398;BME280;63606;52.328;20.964;2022-10-31T02:29:26;101219.75;;;6.24;93.46
73398;BME280;63606;52.328;20.964;2022-10-31T02:32:08;101215.00;;;6.20;93.26
73398;BME280;63606;52.328;20.964;2022-10-31T02:35:23;101215.75;;;6.14;93.35
73398;BME280;63606;52.328;20.964;2022-10-31T02:38:06;101211.16;;;6.08;93.72
73398;BME280;63606;52.328;20.964;2022-10-31T02:40:43;101213.41;;;6.04;93.38
73398;BME280;63606;52.328;20.964;2022-10-31T02:43:29;101216.25;;;6.02;94.00
73398;BME280;63606;52.328;20.964;2022-10-31T02:46:08;101214.16;;;5.98;93.75
73398;BME280;63606;52.328;20.964;2022-10-31T02:48:39;101223.75;;;5.92;93.48
73398;BME280;63606;52.328;20.964;2022-10-31T02:51:07;101228.78;;;5.87;93.30
73398;BME280;63606;52.328;20.964;2022-10-31T02:53:34;101227.69;;;5.96;93.68
73398;BME280;63606;52.328;20.964;2022-10-31T02:56:16;101233.03;;;5.96;93.83
73398;BME280;63606;52.328;20.964;2022-10-31T02:58:54;101227.69;;;5.96;93.99
73398;BME280;63606;52.328;20.964;2022-10-31T03:01:46;101232.00;;;5.97;94.70
73398;BME280;63606;52.328;20.964;2022-10-31T03:04:23;101236.72;;;5.95;94.26
73398;BME280;63606;52.328;20.964;2022-10-31T03:12:42;101247.16;;;5.75;93.50
73398;BME280;63606;52.328;20.964;2022-10-31T03:15:32;101253.31;;;5.76;93.89
73398;BME280;63606;52.328;20.964;2022-10-31T03:20:51;101253.31;;;5.76;93.82
73398;BME280;63606;52.328;20.964;2022-10-31T03:23:22;101257.00;;;5.75;93.62
73398;BME280;63606;52.328;20.964;2022-10-31T03:25:49;101261.88;;;5.71;94.52
73398;BME280;63606;52.328;20.964;2022-10-31T03:28:18;101259.41;;;5.70;93.54
73398;BME280;63606;52.328;20.964;2022-10-31T03:30:48;101265.38;;;5.72;93.47
73398;BME280;63606;52.328;20.964;2022-10-31T03:33:23;101259.75;;;5.67;93.96
73398;BME280;63606;52.328;20.964;2022-10-31T03:35:53;101262.25;;;5.68;93.95
73398;BME280;63606;52.328;20.964;2022-10-31T03:38:21;101254.31;;;5.75;93.25
73398;BME280;63606;52.328;20.964;2022-10-31T03:40:49;101258.19;;;5.72;93.40
73398;BME280;63606;52.328;20.964;2022-10-31T03:43:22;101266.13;;;5.66;93.69
73398;BME280;63606;52.328;20.964;2022-10-31T03:45:49;101268.78;;;5.66;94.14
73398;BME280;63606;52.328;20.964;2022-10-31T03:48:17;101264.84;;;5.62;93.94
73398;BME280;63606;52.328;20.964;2022-10-31T03:53:59;101268.97;;;5.50;93.83
73398;BME280;63606;52.328;20.964;2022-10-31T03:56:40;101268.97;;;5.50;94.33
73398;BME280;63606;52.328;20.964;2022-10-31T03:59:37;101268.09;;;5.42;93.60
73398;BME280;63606;52.328;20.964;2022-10-31T04:02:09;101267.06;;;5.43;93.80
73398;BME280;63606;52.328;20.964;2022-10-31T04:04:37;101266.78;;;5.38;93.83
73398;BME280;63606;52.328;20.964;2022-10-31T04:07:05;101268.63;;;5.38;94.71
73398;BME280;63606;52.328;20.964;2022-10-31T04:09:34;101270.28;;;5.39;93.97
73398;BME280;63606;52.328;20.964;2022-10-31T04:12:03;101265.78;;;5.39;94.37
73398;BME280;63606;52.328;20.964;2022-10-31T04:14:32;101259.81;;;5.37;93.77
73398;BME280;63606;52.328;20.964;2022-10-31T04:17:01;101266.78;;;5.38;94.04
73398;BME280;63606;52.328;20.964;2022-10-31T04:19:28;101270.75;;;5.42;94.71
73398;BME280;63606;52.328;20.964;2022-10-31T04:21:54;101273.78;;;5.39;93.97
73398;BME280;63606;52.328;20.964;2022-10-31T04:24:20;101271.09;;;5.39;94.30
73398;BME280;63606;52.328;20.964;2022-10-31T04:26:45;101270.75;;;5.42;94.33
73398;BME280;63606;52.328;20.964;2022-10-31T04:29:11;101275.09;;;5.43;93.99
73398;BME280;63606;52.328;20.964;2022-10-31T04:31:36;101273.44;;;5.42;94.03
73398;BME280;63606;52.328;20.964;2022-10-31T04:34:02;101268.38;;;5.33;93.60
73398;BME280;63606;52.328;20.964;2022-10-31T04:36:27;101273.59;;;5.26;93.72
73398;BME280;63606;52.328;20.964;2022-10-31T04:38:53;101282.63;;;5.25;94.49
73398;BME280;63606;52.328;20.964;2022-10-31T04:41:18;101278.13;;;5.26;93.70
73398;BME280;63606;52.328;20.964;2022-10-31T04:43:44;101276.34;;;5.18;94.15
73398;BME280;63606;52.328;20.964;2022-10-31T04:46:09;101275.53;;;5.17;94.14
73398;BME280;63606;52.328;20.964;2022-10-31T04:48:35;101281.34;;;5.21;94.60
73398;BME280;63606;52.328;20.964;2022-10-31T04:51:02;101278.38;;;5.16;94.77
73398;BME280;63606;52.328;20.964;2022-10-31T04:53:28;101283.16;;;5.21;94.35
73398;BME280;63606;52.328;20.964;2022-10-31T04:55:54;101291.63;;;5.24;95.09
73398;BME280;63606;52.328;20.964;2022-10-31T04:58:19;101294.00;;;5.19;94.65
73398;BME280;63606;52.328;20.964;2022-10-31T05:00:45;101287.03;;;5.18;94.24
73398;BME280;63606;52.328;20.964;2022-10-31T05:03:10;101291.16;;;5.21;94.92
73398;BME280;63606;52.328;20.964;2022-10-31T05:05:36;101291.00;;;5.22;95.08
73398;BME280;63606;52.328;20.964;2022-10-31T05:08:01;101286.38;;;5.16;94.79
73398;BME280;63606;52.328;20.964;2022-10-31T05:10:29;101290.78;;;5.09;94.37
73398;BME280;63606;52.328;20.964;2022-10-31T05:13:00;101296.69;;;5.04;94.49
73398;BME280;63606;52.328;20.964;2022-10-31T05:15:27;101298.13;;;5.07;94.75
73398;BME280;63606;52.328;20.964;2022-10-31T05:17:53;101297.13;;;5.08;94.95
73398;BME280;63606;52.328;20.964;2022-10-31T05:20:20;101296.31;;;5.07;95.08
73398;BME280;63606;52.328;20.964;2022-10-31T05:22:48;101292.50;;;5.02;94.96
73398;BME280;63606;52.328;20.964;2022-10-31T05:25:15;101292.06;;;4.98;95.17
73398;BME280;63606;52.328;20.964;2022-10-31T05:27:45;101294.91;;;4.97;94.66
73398;BME280;63606;52.328;20.964;2022-10-31T05:30:13;101306.69;;;5.02;95.68
73398;BME280;63606;52.328;20.964;2022-10-31T05:32:42;101306.69;;;5.02;95.44
73398;BME280;63606;52.328;20.964;2022-10-31T05:35:12;101306.84;;;5.01;95.14
73398;BME280;63606;52.328;20.964;2022-10-31T05:37:38;101309.00;;;5.05;96.07
73398;BME280;63606;52.328;20.964;2022-10-31T05:40:05;101304.50;;;5.06;95.28
73398;BME280;63606;52.328;20.964;2022-10-31T05:42:32;101311.84;;;5.04;95.33
73398;BME280;63606;52.328;20.964;2022-10-31T05:44:57;101310.19;;;5.03;95.02
73398;BME280;63606;52.328;20.964;2022-10-31T05:47:23;101314.13;;;5.07;95.99
73398;BME280;63606;52.328;20.964;2022-10-31T05:49:48;101311.09;;;5.10;95.94
73398;BME280;63606;52.328;20.964;2022-10-31T05:52:14;101313.41;;;5.13;96.08
73398;BME280;63606;52.328;20.964;2022-10-31T05:54:40;101314.69;;;5.17;96.15
73398;BME280;63606;52.328;20.964;2022-10-31T05:57:05;101311.66;;;5.20;95.99
73398;BME280;63606;52.328;20.964;2022-10-31T05:59:31;101311.94;;;5.25;95.97
73398;BME280;63606;52.328;20.964;2022-10-31T06:01:57;101310.94;;;5.26;96.67
73398;BME280;63606;52.328;20.964;2022-10-31T06:04:22;101311.88;;;5.33;96.97
73398;BME280;63606;52.328;20.964;2022-10-31T06:06:48;101310.78;;;5.42;96.89
73398;BME280;63606;52.328;20.964;2022-10-31T06:09:13;101310.38;;;5.45;97.31
73398;BME280;63606;52.328;20.964;2022-10-31T06:11:39;101310.84;;;5.49;97.21
73398;BME280;63606;52.328;20.964;2022-10-31T06:14:05;101317.66;;;5.52;96.99
73398;BME280;63606;52.328;20.964;2022-10-31T06:16:31;101323.25;;;5.57;97.03
73398;BME280;63606;52.328;20.964;2022-10-31T06:18:56;101320.88;;;5.62;96.50
73398;BME280;63606;52.328;20.964;2022-10-31T06:21:22;101317.84;;;5.65;96.61
73398;BME280;63606;52.328;20.964;2022-10-31T06:23:48;101316.44;;;5.69;96.84
73398;BME280;63606;52.328;20.964;2022-10-31T06:26:13;101320.59;;;5.71;96.31
73398;BME280;63606;52.328;20.964;2022-10-31T06:28:39;101321.69;;;5.77;96.88
73398;BME280;63606;52.328;20.964;2022-10-31T06:31:04;101324.00;;;5.80;96.55
73398;BME280;63606;52.328;20.964;2022-10-31T06:33:30;101320.94;;;5.83;96.12
73398;BME280;63606;52.328;20.964;2022-10-31T06:35:55;101317.91;;;5.86;96.59
73398;BME280;63606;52.328;20.964;2022-10-31T06:38:21;101321.91;;;5.90;96.23
73398;BME280;63606;52.328;20.964;2022-10-31T06:40:46;101321.31;;;5.95;96.59
73398;BME280;63606;52.328;20.964;2022-10-31T06:43:12;101325.09;;;6.00;96.14
73398;BME280;63606;52.328;20.964;2022-10-31T06:45:39;101325.53;;;6.04;96.24
73398;BME280;63606;52.328;20.964;2022-10-31T06:48:05;101333.81;;;6.09;96.46
73398;BME280;63606;52.328;20.964;2022-10-31T06:50:31;101333.25;;;6.14;96.15
73398;BME280;63606;52.328;20.964;2022-10-31T06:52:57;101331.47;;;6.21;96.28
73398;BME280;63606;52.328;20.964;2022-10-31T06:55:25;101330.72;;;6.27;96.57
73398;BME280;63606;52.328;20.964;2022-10-31T06:57:59;101330.78;;;6.34;96.51
73398;BME280;63606;52.328;20.964;2022-10-31T07:00:26;101333.53;;;6.40;96.93
73398;BME280;63606;52.328;20.964;2022-10-31T07:02:59;101335.28;;;6.48;96.45
73398;BME280;63606;52.328;20.964;2022-10-31T07:05:26;101338.25;;;6.59;96.49
73398;BME280;63606;52.328;20.964;2022-10-31T07:07:57;101336.00;;;6.63;96.93
73398;BME280;63606;52.328;20.964;2022-10-31T07:10:24;101336.47;;;6.67;96.97
73398;BME280;63606;52.328;20.964;2022-10-31T07:12:55;101331.16;;;6.73;97.72
73398;BME280;63606;52.328;20.964;2022-10-31T07:15:22;101329.78;;;6.77;96.66
73398;BME280;63606;52.328;20.964;2022-10-31T07:17:48;101333.91;;;6.80;96.84
73398;BME280;63606;52.328;20.964;2022-10-31T07:20:14;101335.81;;;6.86;96.94
73398;BME280;63606;52.328;20.964;2022-10-31T07:22:40;101324.94;;;6.87;96.42
73398;BME280;63606;52.328;20.964;2022-10-31T07:25:06;101331.34;;;6.93;97.15
73398;BME280;63606;52.328;20.964;2022-10-31T07:27:41;101340.44;;;6.99;96.85
73398;BME280;63606;52.328;20.964;2022-10-31T07:30:09;101336.16;;;7.04;96.77
73398;BME280;63606;52.328;20.964;2022-10-31T07:32:42;101333.13;;;7.07;97.32
73398;BME280;63606;52.328;20.964;2022-10-31T07:35:09;101329.91;;;7.18;97.42
73398;BME280;63606;52.328;20.964;2022-10-31T07:37:35;101336.75;;;7.28;97.35
73398;BME280;63606;52.328;20.964;2022-10-31T07:40:05;101341.97;;;7.36;97.63
73398;BME280;63606;52.328;20.964;2022-10-31T07:42:38;101344.50;;;7.44;98.13
73398;BME280;63606;52.328;20.964;2022-10-31T07:45:05;101343.69;;;7.50;97.03
73398;BME280;63606;52.328;20.964;2022-10-31T07:47:57;101343.13;;;7.61;97.53
73398;BME280;63606;52.328;20.964;2022-10-31T07:50:31;101339.91;;;7.72;97.21
73398;BME280;63606;52.328;20.964;2022-10-31T07:53:08;101344.44;;;7.79;97.79
73398;BME280;63606;52.328;20.964;2022-10-31T07:55:35;101342.63;;;7.86;97.13
73398;BME280;63606;52.328;20.964;2022-10-31T07:58:08;101350.34;;;8.02;96.86
73398;BME280;63606;52.328;20.964;2022-10-31T08:00:36;101348.13;;;8.12;96.18
73398;BME280;63606;52.328;20.964;2022-10-31T08:03:04;101352.84;;;8.17;96.13
73398;BME280;63606;52.328;20.964;2022-10-31T08:05:31;101358.44;;;8.22;96.18
73398;BME280;63606;52.328;20.964;2022-10-31T08:07:57;101353.97;;;8.36;95.81
73398;BME280;63606;52.328;20.964;2022-10-31T08:10:24;101353.78;;;8.37;95.87
73398;BME280;63606;52.328;20.964;2022-10-31T08:13:00;101355.84;;;8.42;95.30
73398;BME280;63606;52.328;20.964;2022-10-31T08:15:26;101359.34;;;8.49;95.48
73398;BME280;63606;52.328;20.964;2022-10-31T08:17:53;101359.78;;;8.52;95.15
73398;BME280;63606;52.328;20.964;2022-10-31T08:20:19;101357.53;;;8.56;95.90
73398;BME280;63606;52.328;20.964;2022-10-31T08:22:58;101359.00;;;8.72;94.99
73398;BME280;63606;52.328;20.964;2022-10-31T08:25:24;101356.13;;;8.80;94.88
73398;BME280;63606;52.328;20.964;2022-10-31T08:27:51;101348.69;;;8.82;95.06
73398;BME280;63606;52.328;20.964;2022-10-31T08:30:18;101354.69;;;8.84;95.38
73398;BME280;63606;52.328;20.964;2022-10-31T08:32:44;101362.75;;;8.91;95.35
73398;BME280;63606;52.328;20.964;2022-10-31T08:35:10;101361.72;;;8.92;95.13
73398;BME280;63606;52.328;20.964;2022-10-31T08:37:35;101364.38;;;8.92;95.09
73398;BME280;63606;52.328;20.964;2022-10-31T08:40:01;101374.31;;;8.98;94.98
73398;BME280;63606;52.328;20.964;2022-10-31T08:42:26;101372.22;;;9.00;94.92
73398;BME280;63606;52.328;20.964;2022-10-31T08:44:52;101366.47;;;9.09;95.33
73398;BME280;63606;52.328;20.964;2022-10-31T08:47:17;101373.47;;;9.17;94.81
73398;BME280;63606;52.328;20.964;2022-10-31T08:49:43;101373.25;;;9.25;94.72
73398;BME280;63606;52.328;20.964;2022-10-31T08:52:08;101373.47;;;9.30;94.77
73398;BME280;63606;52.328;20.964;2022-10-31T08:54:34;101371.59;;;9.37;94.29
73398;BME280;63606;52.328;20.964;2022-10-31T08:56:59;101375.13;;;9.38;94.43
73398;BME280;63606;52.328;20.964;2022-10-31T08:59:25;101373.22;;;9.45;94.37
73398;BME280;63606;52.328;20.964;2022-10-31T09:01:50;101373.44;;;9.57;93.45
73398;BME280;63606;52.328;20.964;2022-10-31T09:04:16;101369.06;;;9.62;93.37
73398;BME280;63606;52.328;20.964;2022-10-31T09:06:41;101376.06;;;9.70;93.33
73398;BME280;63606;52.328;20.964;2022-10-31T09:09:07;101368.63;;;9.79;92.42
73398;BME280;63606;52.328;20.964;2022-10-31T09:11:32;101368.41;;;9.80;93.00
73398;BME280;63606;52.328;20.964;2022-10-31T09:13:58;101375.81;;;9.91;92.43
73398;BME280;63606;52.328;20.964;2022-10-31T09:16:23;101376.41;;;9.93;92.50
73398;BME280;63606;52.328;20.964;2022-10-31T09:18:49;101380.72;;;10.01;92.32
73398;BME280;63606;52.328;20.964;2022-10-31T09:21:14;101375.34;;;10.08;92.23
73398;BME280;63606;52.328;20.964;2022-10-31T09:23:40;101379.44;;;10.17;90.90
73398;BME280;63606;52.328;20.964;2022-10-31T09:26:05;101374.91;;;10.24;90.74
73398;BME280;63606;52.328;20.964;2022-10-31T09:28:31;101382.28;;;10.35;90.60
73398;BME280;63606;52.328;20.964;2022-10-31T09:30:57;101383.22;;;10.54;89.53
73398;BME280;63606;52.328;20.964;2022-10-31T09:33:23;101383.22;;;10.54;89.12
73398;BME280;63606;52.328;20.964;2022-10-31T09:35:48;101378.41;;;10.63;88.99
73398;BME280;63606;52.328;20.964;2022-10-31T09:38:19;101383.34;;;10.66;88.59
73398;BME280;63606;52.328;20.964;2022-10-31T09:43:39;101376.41;;;10.83;88.19
73398;BME280;63606;52.328;20.964;2022-10-31T09:46:43;101378.66;;;10.86;88.64
73398;BME280;63606;52.328;20.964;2022-10-31T09:49:18;101377.94;;;10.97;88.04
73398;BME280;63606;52.328;20.964;2022-10-31T09:56:58;101377.38;;;11.20;88.03
73398;BME280;63606;52.328;20.964;2022-10-31T09:59:34;101378.94;;;11.28;87.28
73398;BME280;63606;52.328;20.964;2022-10-31T10:02:05;101370.44;;;11.31;87.33
73398;BME280;63606;52.328;20.964;2022-10-31T10:04:47;101371.94;;;11.45;87.12
73398;BME280;63606;52.328;20.964;2022-10-31T10:09:44;101367.63;;;11.62;86.88
73398;BME280;63606;52.328;20.964;2022-10-31T10:15:47;101358.78;;;11.73;86.84
73398;BME280;63606;52.328;20.964;2022-10-31T10:24:33;101362.03;;;12.00;85.33
73398;BME280;63606;52.328;20.964;2022-10-31T10:31:03;101359.84;;;12.27;84.60
73398;BME280;63606;52.328;20.964;2022-10-31T10:33:44;101355.53;;;12.38;84.30
73398;BME280;63606;52.328;20.964;2022-10-31T10:38:58;101350.53;;;13.07;81.40
73398;BME280;63606;52.328;20.964;2022-10-31T10:41:31;101347.97;;;13.59;79.06
73398;BME280;63606;52.328;20.964;2022-10-31T10:43:57;101350.88;;;13.92;78.34
73398;BME280;63606;52.328;20.964;2022-10-31T10:46:51;101354.09;;;14.06;76.97
73398;BME280;63606;52.328;20.964;2022-10-31T10:49:49;101356.97;;;13.99;76.97
73398;BME280;63606;52.328;20.964;2022-10-31T11:00:24;101347.03;;;13.65;78.29
73398;BME280;63606;52.328;20.964;2022-10-31T11:02:51;101351.72;;;13.58;78.67
73398;BME280;63606;52.328;20.964;2022-10-31T11:05:28;101346.94;;;13.48;79.16
73398;BME280;63606;52.328;20.964;2022-10-31T11:07:55;101343.41;;;13.48;79.89
73398;BME280;63606;52.328;20.964;2022-10-31T11:10:21;101345.03;;;13.49;79.61
73398;BME280;63606;52.328;20.964;2022-10-31T11:15:51;101331.75;;;13.59;78.79
73398;BME280;63606;52.328;20.964;2022-10-31T11:18:23;101338.34;;;13.63;78.77
73398;BME280;63606;52.328;20.964;2022-10-31T11:20:52;101334.91;;;13.67;78.30
73398;BME280;63606;52.328;20.964;2022-10-31T11:23:19;101334.88;;;13.79;77.42
73398;BME280;63606;52.328;20.964;2022-10-31T11:25:57;101338.00;;;13.71;77.68
73398;BME280;63606;52.328;20.964;2022-10-31T11:28:24;101343.25;;;13.78;77.31
73398;BME280;63606;52.328;20.964;2022-10-31T11:30:56;101335.72;;;13.80;77.66
73398;BME280;63606;52.328;20.964;2022-10-31T11:33:30;101339.34;;;13.85;77.99
73398;BME280;63606;52.328;20.964;2022-10-31T11:35:57;101336.06;;;13.83;77.84
73398;BME280;63606;52.328;20.964;2022-10-31T11:38:26;101333.69;;;13.87;77.95
73398;BME280;63606;52.328;20.964;2022-10-31T11:41:01;101337.22;;;13.87;78.13
73398;BME280;63606;52.328;20.964;2022-10-31T11:43:29;101330.94;;;14.10;77.59
73398;BME280;63606;52.328;20.964;2022-10-31T11:45:56;101337.75;;;14.13;78.15
73398;BME280;63606;52.328;20.964;2022-10-31T11:48:24;101333.97;;;14.14;77.44
73398;BME280;63606;52.328;20.964;2022-10-31T11:50:54;101330.88;;;14.22;77.66
73398;BME280;63606;52.328;20.964;2022-10-31T11:53:29;101335.22;;;14.23;77.83
73398;BME280;63606;52.328;20.964;2022-10-31T11:56:12;101335.91;;;14.30;77.26
73398;BME280;63606;52.328;20.964;2022-10-31T11:58:38;101328.50;;;14.25;77.95
73398;BME280;63606;52.328;20.964;2022-10-31T12:01:05;101331.56;;;14.29;77.23
73398;BME280;63606;52.328;20.964;2022-10-31T12:03:53;101329.91;;;14.28;77.70
73398;BME280;63606;52.328;20.964;2022-10-31T12:06:28;101324.59;;;14.33;78.39
73398;BME280;63606;52.328;20.964;2022-10-31T12:08:55;101325.75;;;14.49;78.15
73398;BME280;63606;52.328;20.964;2022-10-31T12:11:39;101328.78;;;14.52;78.90
73398;BME280;63606;52.328;20.964;2022-10-31T12:16:44;101321.31;;;14.59;78.15
73398;BME280;63606;52.328;20.964;2022-10-31T12:19:36;101318.28;;;14.73;77.91
73398;BME280;63606;52.328;20.964;2022-10-31T12:22:08;101318.47;;;14.83;77.99
73398;BME280;63606;52.328;20.964;2022-10-31T12:34:55;101306.44;;;15.29;77.22
73398;BME280;63606;52.328;20.964;2022-10-31T12:40:51;101307.09;;;15.58;76.80
73398;BME280;63606;52.328;20.964;2022-10-31T12:46:45;101303.91;;;16.05;73.98
73398;BME280;63606;52.328;20.964;2022-10-31T13:00:14;101306.38;;;17.35;71.02
73398;BME280;63606;52.328;20.964;2022-10-31T13:03:00;101308.97;;;17.62;69.60
73398;BME280;63606;52.328;20.964;2022-10-31T13:05:40;101310.06;;;17.61;69.14
73398;BME280;63606;52.328;20.964;2022-10-31T13:08:14;101306.97;;;17.42;70.18
73398;BME280;63606;52.328;20.964;2022-10-31T13:10:44;101306.03;;;17.21;71.37
73398;BME280;63606;52.328;20.964;2022-10-31T13:13:17;101311.63;;;17.04;71.27
73398;BME280;63606;52.328;20.964;2022-10-31T13:16:16;101307.41;;;16.81;72.19
73398;BME280;63606;52.328;20.964;2022-10-31T13:18:54;101303.19;;;16.69;72.34
73398;BME280;63606;52.328;20.964;2022-10-31T13:21:26;101312.09;;;16.64;72.19
73398;BME280;63606;52.328;20.964;2022-10-31T13:23:52;101303.88;;;16.54;73.32
73398;BME280;63606;52.328;20.964;2022-10-31T13:26:37;101308.16;;;16.50;75.35
73398;BME280;63606;52.328;20.964;2022-10-31T13:29:25;101311.91;;;16.44;76.22
73398;BME280;63606;52.328;20.964;2022-10-31T13:31:53;101308.03;;;16.35;76.33
73398;BME280;63606;52.328;20.964;2022-10-31T13:34:26;101304.94;;;16.26;76.07
73398;BME280;63606;52.328;20.964;2022-10-31T13:45:20;101302.09;;;15.89;78.45
73398;BME280;63606;52.328;20.964;2022-10-31T13:50:39;101300.84;;;15.74;76.92
73398;BME280;63606;52.328;20.964;2022-10-31T13:55:45;101289.28;;;15.62;77.37
73398;BME280;63606;52.328;20.964;2022-10-31T13:58:22;101286.50;;;15.57;77.38
73398;BME280;63606;52.328;20.964;2022-10-31T14:03:37;101286.84;;;15.44;78.65
73398;BME280;63606;52.328;20.964;2022-10-31T14:06:04;101288.69;;;15.38;79.06
73398;BME280;63606;52.328;20.964;2022-10-31T14:08:34;101284.00;;;15.34;78.25
73398;BME280;63606;52.328;20.964;2022-10-31T14:11:01;101294.28;;;15.32;78.54
73398;BME280;63606;52.328;20.964;2022-10-31T14:13:32;101293.63;;;15.25;79.35
73398;BME280;63606;52.328;20.964;2022-10-31T14:16:02;101289.13;;;15.13;79.30
73398;BME280;63606;52.328;20.964;2022-10-31T14:18:38;101289.47;;;15.00;79.64
73398;BME280;63606;52.328;20.964;2022-10-31T14:23:49;101288.81;;;14.93;82.85
73398;BME280;63606;52.328;20.964;2022-10-31T14:26:32;101293.34;;;14.87;81.93
73398;BME280;63606;52.328;20.964;2022-10-31T14:29:00;101292.94;;;14.79;83.37
73398;BME280;63606;52.328;20.964;2022-10-31T14:36:50;101298.44;;;14.50;83.07
73398;BME280;63606;52.328;20.964;2022-10-31T14:39:33;101294.44;;;14.41;84.04
73398;BME280;63606;52.328;20.964;2022-10-31T14:47:39;101303.06;;;14.10;84.57
73398;BME280;63606;52.328;20.964;2022-10-31T14:50:39;101300.25;;;14.04;84.51
73398;BME280;63606;52.328;20.964;2022-10-31T14:53:34;101304.03;;;14.03;85.60
73398;BME280;63606;52.328;20.964;2022-10-31T14:55:58;101304.50;;;14.00;84.41
73398;BME280;63606;52.328;20.964;2022-10-31T14:58:40;101300.06;;;13.94;84.80
73398;BME280;63606;52.328;20.964;2022-10-31T15:01:38;101300.69;;;13.85;86.24